sensor_id;sensor_type;location;lat;lon;timestamp;P1;durP1;ratioP1;P2;durP2;ratioP2
12112;SDS011;6120;52.250;8.478;2023-05-07T00:01:13;34.33;;;22.08;;
12112;SDS011;6120;52.250;8.478;2023-05-07T00:03:40;32.78;;;20.95;;
12112;SDS011;6120;52.250;8.478;2023-05-07T00:06:08;38.30;;;23.92;;
12112;SDS011;6120;52.250;8.478;2023-05-07T00:08:34;34.50;;;21.83;;
12112;SDS011;6120;52.250;8.478;2023-05-07T00:11:01;38.50;;;22.38;;
12112;SDS011;6120;52.250;8.478;2023-05-07T00:13:28;37.08;;;21.70;;
12112;SDS011;6120;52.250;8.478;2023-05-07T00:18:23;34.60;;;20.40;;
12112;SDS011;6120;52.250;8.478;2023-05-07T00:20:50;35.83;;;22.15;;
12112;SDS011;6120;52.250;8.478;2023-05-07T00:23:16;37.33;;;21.88;;
12112;SDS011;6120;52.250;8.478;2023-05-07T00:25:43;41.40;;;24.15;;
12112;SDS011;6120;52.250;8.478;2023-05-07T00:28:09;41.10;;;24.42;;
12112;SDS011;6120;52.250;8.478;2023-05-07T00:30:36;39.03;;;23.88;;
12112;SDS011;6120;52.250;8.478;2023-05-07T00:33:03;42.65;;;23.33;;
12112;SDS011;6120;52.250;8.478;2023-05-07T00:35:29;39.53;;;23.10;;
12112;SDS011;6120;52.250;8.478;2023-05-07T00:37:56;42.25;;;23.20;;
12112;SDS011;6120;52.250;8.478;2023-05-07T00:40:23;39.67;;;23.75;;
12112;SDS011;6120;52.250;8.478;2023-05-07T00:42:50;39.72;;;23.23;;
12112;SDS011;6120;52.250;8.478;2023-05-07T00:45:16;36.15;;;22.92;;
12112;SDS011;6120;52.250;8.478;2023-05-07T00:47:43;50.05;;;24.42;;
12112;SDS011;6120;52.250;8.478;2023-05-07T00:50:10;39.03;;;23.52;;
12112;SDS011;6120;52.250;8.478;2023-05-07T00:52:39;41.60;;;24.65;;
12112;SDS011;6120;52.250;8.478;2023-05-07T00:55:06;39.47;;;23.98;;
12112;SDS011;6120;52.250;8.478;2023-05-07T00:57:36;40.83;;;24.33;;
12112;SDS011;6120;52.250;8.478;2023-05-07T01:00:04;41.80;;;23.42;;
12112;SDS011;6120;52.250;8.478;2023-05-07T01:02:31;37.93;;;23.37;;
12112;SDS011;6120;52.250;8.478;2023-05-07T01:04:58;40.95;;;24.00;;
12112;SDS011;6120;52.250;8.478;2023-05-07T01:07:24;40.90;;;23.88;;
12112;SDS011;6120;52.250;8.478;2023-05-07T01:09:51;39.53;;;23.88;;
12112;SDS011;6120;52.250;8.478;2023-05-07T01:12:18;43.13;;;24.10;;
12112;SDS011;6120;52.250;8.478;2023-05-07T01:14:45;43.55;;;25.35;;
12112;SDS011;6120;52.250;8.478;2023-05-07T01:17:12;45.20;;;25.73;;
12112;SDS011;6120;52.250;8.478;2023-05-07T01:19:39;45.08;;;26.35;;
12112;SDS011;6120;52.250;8.478;2023-05-07T01:22:09;49.53;;;27.40;;
12112;SDS011;6120;52.250;8.478;2023-05-07T01:24:40;39.08;;;24.10;;
12112;SDS011;6120;52.250;8.478;2023-05-07T01:27:07;42.13;;;26.48;;
12112;SDS011;6120;52.250;8.478;2023-05-07T01:29:34;39.70;;;24.05;;
12112;SDS011;6120;52.250;8.478;2023-05-07T01:32:01;43.88;;;25.48;;
12112;SDS011;6120;52.250;8.478;2023-05-07T01:34:30;42.13;;;24.55;;
12112;SDS011;6120;52.250;8.478;2023-05-07T01:36:57;40.47;;;25.00;;
12112;SDS011;6120;52.250;8.478;2023-05-07T01:39:25;42.22;;;25.42;;
12112;SDS011;6120;52.250;8.478;2023-05-07T01:41:55;41.90;;;24.80;;
12112;SDS011;6120;52.250;8.478;2023-05-07T01:44:22;46.22;;;26.42;;
12112;SDS011;6120;52.250;8.478;2023-05-07T01:46:49;46.35;;;25.92;;
12112;SDS011;6120;52.250;8.478;2023-05-07T01:49:16;43.75;;;25.70;;
12112;SDS011;6120;52.250;8.478;2023-05-07T01:51:43;45.88;;;26.85;;
12112;SDS011;6120;52.250;8.478;2023-05-07T01:54:10;40.08;;;25.05;;
12112;SDS011;6120;52.250;8.478;2023-05-07T01:56:37;41.75;;;25.20;;
12112;SDS011;6120;52.250;8.478;2023-05-07T01:59:03;44.28;;;23.50;;
12112;SDS011;6120;52.250;8.478;2023-05-07T02:01:31;38.28;;;23.58;;
12112;SDS011;6120;52.250;8.478;2023-05-07T02:03:58;43.35;;;25.73;;
12112;SDS011;6120;52.250;8.478;2023-05-07T02:06:24;41.63;;;24.42;;
12112;SDS011;6120;52.250;8.478;2023-05-07T02:08:51;41.60;;;24.25;;
12112;SDS011;6120;52.250;8.478;2023-05-07T02:11:18;40.22;;;23.88;;
12112;SDS011;6120;52.250;8.478;2023-05-07T02:13:44;37.50;;;23.42;;
12112;SDS011;6120;52.250;8.478;2023-05-07T02:16:11;42.95;;;24.30;;
12112;SDS011;6120;52.250;8.478;2023-05-07T02:18:40;44.30;;;24.65;;
12112;SDS011;6120;52.250;8.478;2023-05-07T02:21:07;37.70;;;23.08;;
12112;SDS011;6120;52.250;8.478;2023-05-07T02:23:33;40.58;;;24.55;;
12112;SDS011;6120;52.250;8.478;2023-05-07T02:26:00;47.78;;;25.80;;
12112;SDS011;6120;52.250;8.478;2023-05-07T02:28:26;44.78;;;25.95;;
12112;SDS011;6120;52.250;8.478;2023-05-07T02:30:53;39.40;;;23.75;;
12112;SDS011;6120;52.250;8.478;2023-05-07T02:33:20;45.17;;;26.40;;
12112;SDS011;6120;52.250;8.478;2023-05-07T02:35:46;44.60;;;25.33;;
12112;SDS011;6120;52.250;8.478;2023-05-07T02:38:13;38.88;;;24.73;;
12112;SDS011;6120;52.250;8.478;2023-05-07T02:40:39;42.13;;;24.75;;
12112;SDS011;6120;52.250;8.478;2023-05-07T02:43:06;42.20;;;26.10;;
12112;SDS011;6120;52.250;8.478;2023-05-07T02:45:33;45.10;;;26.05;;
12112;SDS011;6120;52.250;8.478;2023-05-07T02:48:00;42.88;;;25.15;;
12112;SDS011;6120;52.250;8.478;2023-05-07T02:50:26;45.10;;;24.40;;
12112;SDS011;6120;52.250;8.478;2023-05-07T02:52:53;47.45;;;26.15;;
12112;SDS011;6120;52.250;8.478;2023-05-07T02:55:21;48.08;;;27.73;;
12112;SDS011;6120;52.250;8.478;2023-05-07T02:57:47;45.45;;;26.98;;
12112;SDS011;6120;52.250;8.478;2023-05-07T03:00:15;47.97;;;27.85;;
12112;SDS011;6120;52.250;8.478;2023-05-07T03:02:45;42.67;;;27.00;;
12112;SDS011;6120;52.250;8.478;2023-05-07T03:05:12;46.83;;;26.92;;
12112;SDS011;6120;52.250;8.478;2023-05-07T03:07:40;47.97;;;28.67;;
12112;SDS011;6120;52.250;8.478;2023-05-07T03:10:11;44.97;;;26.83;;
12112;SDS011;6120;52.250;8.478;2023-05-07T03:12:38;57.72;;;29.92;;
12112;SDS011;6120;52.250;8.478;2023-05-07T03:15:05;55.55;;;30.27;;
12112;SDS011;6120;52.250;8.478;2023-05-07T03:17:32;56.17;;;31.05;;
12112;SDS011;6120;52.250;8.478;2023-05-07T03:19:59;51.55;;;29.83;;
12112;SDS011;6120;52.250;8.478;2023-05-07T03:22:26;47.47;;;27.20;;
12112;SDS011;6120;52.250;8.478;2023-05-07T03:24:52;59.28;;;30.88;;
12112;SDS011;6120;52.250;8.478;2023-05-07T03:27:19;49.20;;;28.85;;
12112;SDS011;6120;52.250;8.478;2023-05-07T03:29:45;50.58;;;29.00;;
12112;SDS011;6120;52.250;8.478;2023-05-07T03:32:12;57.70;;;31.83;;
12112;SDS011;6120;52.250;8.478;2023-05-07T03:34:39;56.38;;;30.65;;
12112;SDS011;6120;52.250;8.478;2023-05-07T03:37:06;58.30;;;30.30;;
12112;SDS011;6120;52.250;8.478;2023-05-07T03:39:32;48.45;;;29.55;;
12112;SDS011;6120;52.250;8.478;2023-05-07T03:41:59;53.30;;;31.33;;
12112;SDS011;6120;52.250;8.478;2023-05-07T03:44:25;52.88;;;30.75;;
12112;SDS011;6120;52.250;8.478;2023-05-07T03:46:52;53.33;;;29.17;;
12112;SDS011;6120;52.250;8.478;2023-05-07T03:49:19;54.38;;;30.90;;
12112;SDS011;6120;52.250;8.478;2023-05-07T03:51:45;56.05;;;31.25;;
12112;SDS011;6120;52.250;8.478;2023-05-07T03:54:12;50.00;;;27.80;;
12112;SDS011;6120;52.250;8.478;2023-05-07T03:56:39;57.38;;;31.15;;
12112;SDS011;6120;52.250;8.478;2023-05-07T03:59:06;52.25;;;28.70;;
12112;SDS011;6120;52.250;8.478;2023-05-07T04:01:32;60.15;;;30.23;;
12112;SDS011;6120;52.250;8.478;2023-05-07T04:03:59;58.72;;;30.00;;
12112;SDS011;6120;52.250;8.478;2023-05-07T04:06:26;49.30;;;29.45;;
12112;SDS011;6120;52.250;8.478;2023-05-07T04:08:53;49.70;;;26.80;;
12112;SDS011;6120;52.250;8.478;2023-05-07T04:11:20;51.53;;;28.73;;
12112;SDS011;6120;52.250;8.478;2023-05-07T04:13:47;53.20;;;27.85;;
12112;SDS011;6120;52.250;8.478;2023-05-07T04:16:13;47.72;;;28.52;;
12112;SDS011;6120;52.250;8.478;2023-05-07T04:18:40;44.92;;;26.00;;
12112;SDS011;6120;52.250;8.478;2023-05-07T04:21:14;47.17;;;27.00;;
12112;SDS011;6120;52.250;8.478;2023-05-07T04:23:44;47.53;;;26.85;;
12112;SDS011;6120;52.250;8.478;2023-05-07T04:26:10;44.70;;;25.75;;
12112;SDS011;6120;52.250;8.478;2023-05-07T04:28:37;47.92;;;26.77;;
12112;SDS011;6120;52.250;8.478;2023-05-07T04:31:04;51.67;;;27.80;;
12112;SDS011;6120;52.250;8.478;2023-05-07T04:33:31;49.75;;;27.48;;
12112;SDS011;6120;52.250;8.478;2023-05-07T04:36:00;48.65;;;27.70;;
12112;SDS011;6120;52.250;8.478;2023-05-07T04:38:31;47.15;;;26.85;;
12112;SDS011;6120;52.250;8.478;2023-05-07T04:41:02;51.38;;;28.13;;
12112;SDS011;6120;52.250;8.478;2023-05-07T04:43:30;49.80;;;27.45;;
12112;SDS011;6120;52.250;8.478;2023-05-07T04:45:56;47.20;;;27.15;;
12112;SDS011;6120;52.250;8.478;2023-05-07T04:48:23;51.08;;;28.63;;
12112;SDS011;6120;52.250;8.478;2023-05-07T04:50:50;49.53;;;26.05;;
12112;SDS011;6120;52.250;8.478;2023-05-07T04:53:17;45.05;;;25.08;;
12112;SDS011;6120;52.250;8.478;2023-05-07T04:55:44;46.70;;;25.42;;
12112;SDS011;6120;52.250;8.478;2023-05-07T04:58:13;41.63;;;23.90;;
12112;SDS011;6120;52.250;8.478;2023-05-07T05:00:40;44.92;;;25.10;;
12112;SDS011;6120;52.250;8.478;2023-05-07T05:03:08;40.90;;;24.13;;
12112;SDS011;6120;52.250;8.478;2023-05-07T05:05:35;42.22;;;23.70;;
12112;SDS011;6120;52.250;8.478;2023-05-07T05:08:02;48.42;;;26.58;;
12112;SDS011;6120;52.250;8.478;2023-05-07T05:10:28;44.17;;;24.77;;
12112;SDS011;6120;52.250;8.478;2023-05-07T05:12:55;54.50;;;28.60;;
12112;SDS011;6120;52.250;8.478;2023-05-07T05:15:22;46.65;;;25.10;;
12112;SDS011;6120;52.250;8.478;2023-05-07T05:17:48;43.80;;;23.83;;
12112;SDS011;6120;52.250;8.478;2023-05-07T05:20:15;47.28;;;25.77;;
12112;SDS011;6120;52.250;8.478;2023-05-07T05:22:42;46.38;;;25.02;;
12112;SDS011;6120;52.250;8.478;2023-05-07T05:25:09;50.88;;;26.65;;
12112;SDS011;6120;52.250;8.478;2023-05-07T05:27:35;52.53;;;25.85;;
12112;SDS011;6120;52.250;8.478;2023-05-07T05:30:03;48.10;;;25.02;;
12112;SDS011;6120;52.250;8.478;2023-05-07T05:32:30;42.53;;;24.50;;
12112;SDS011;6120;52.250;8.478;2023-05-07T05:34:56;44.08;;;25.05;;
12112;SDS011;6120;52.250;8.478;2023-05-07T05:37:23;47.83;;;25.30;;
12112;SDS011;6120;52.250;8.478;2023-05-07T05:39:50;46.13;;;24.67;;
12112;SDS011;6120;52.250;8.478;2023-05-07T05:42:16;48.45;;;25.80;;
12112;SDS011;6120;52.250;8.478;2023-05-07T05:44:43;47.33;;;25.00;;
12112;SDS011;6120;52.250;8.478;2023-05-07T05:47:09;41.90;;;22.67;;
12112;SDS011;6120;52.250;8.478;2023-05-07T05:49:36;47.30;;;24.35;;
12112;SDS011;6120;52.250;8.478;2023-05-07T05:52:03;46.85;;;24.10;;
12112;SDS011;6120;52.250;8.478;2023-05-07T05:54:29;37.05;;;21.77;;
12112;SDS011;6120;52.250;8.478;2023-05-07T05:56:56;41.00;;;23.88;;
12112;SDS011;6120;52.250;8.478;2023-05-07T05:59:23;39.47;;;21.95;;
12112;SDS011;6120;52.250;8.478;2023-05-07T06:01:49;42.58;;;23.42;;
12112;SDS011;6120;52.250;8.478;2023-05-07T06:04:16;40.30;;;21.58;;
12112;SDS011;6120;52.250;8.478;2023-05-07T06:06:43;44.58;;;23.38;;
12112;SDS011;6120;52.250;8.478;2023-05-07T06:09:09;41.47;;;22.60;;
12112;SDS011;6120;52.250;8.478;2023-05-07T06:11:36;46.70;;;23.67;;
12112;SDS011;6120;52.250;8.478;2023-05-07T06:14:03;37.40;;;21.27;;
12112;SDS011;6120;52.250;8.478;2023-05-07T06:16:29;44.70;;;23.63;;
12112;SDS011;6120;52.250;8.478;2023-05-07T06:18:56;42.25;;;22.95;;
12112;SDS011;6120;52.250;8.478;2023-05-07T06:21:22;39.13;;;21.58;;
12112;SDS011;6120;52.250;8.478;2023-05-07T06:23:49;36.60;;;20.80;;
12112;SDS011;6120;52.250;8.478;2023-05-07T06:28:44;35.83;;;18.88;;
12112;SDS011;6120;52.250;8.478;2023-05-07T06:31:17;39.00;;;20.33;;
12112;SDS011;6120;52.250;8.478;2023-05-07T06:33:47;35.60;;;20.90;;
12112;SDS011;6120;52.250;8.478;2023-05-07T06:36:14;36.58;;;19.83;;
12112;SDS011;6120;52.250;8.478;2023-05-07T06:38:41;37.80;;;21.35;;
12112;SDS011;6120;52.250;8.478;2023-05-07T06:41:08;34.58;;;19.20;;
12112;SDS011;6120;52.250;8.478;2023-05-07T06:43:35;38.17;;;21.60;;
12112;SDS011;6120;52.250;8.478;2023-05-07T06:46:01;35.38;;;20.67;;
12112;SDS011;6120;52.250;8.478;2023-05-07T06:48:28;34.65;;;19.70;;
12112;SDS011;6120;52.250;8.478;2023-05-07T06:50:55;32.65;;;20.73;;
12112;SDS011;6120;52.250;8.478;2023-05-07T06:53:24;35.40;;;18.55;;
12112;SDS011;6120;52.250;8.478;2023-05-07T06:55:52;36.33;;;21.55;;
12112;SDS011;6120;52.250;8.478;2023-05-07T06:58:18;29.60;;;18.55;;
12112;SDS011;6120;52.250;8.478;2023-05-07T07:00:46;33.85;;;18.90;;
12112;SDS011;6120;52.250;8.478;2023-05-07T07:03:13;36.35;;;20.58;;
12112;SDS011;6120;52.250;8.478;2023-05-07T07:05:40;33.90;;;18.17;;
12112;SDS011;6120;52.250;8.478;2023-05-07T07:08:07;33.92;;;20.20;;
12112;SDS011;6120;52.250;8.478;2023-05-07T07:10:34;32.90;;;18.55;;
12112;SDS011;6120;52.250;8.478;2023-05-07T07:13:01;33.60;;;18.05;;
12112;SDS011;6120;52.250;8.478;2023-05-07T07:15:27;35.50;;;19.90;;
12112;SDS011;6120;52.250;8.478;2023-05-07T07:17:54;33.15;;;19.10;;
12112;SDS011;6120;52.250;8.478;2023-05-07T07:20:21;31.30;;;18.73;;
12112;SDS011;6120;52.250;8.478;2023-05-07T07:22:48;26.63;;;16.83;;
12112;SDS011;6120;52.250;8.478;2023-05-07T07:25:14;30.63;;;17.75;;
12112;SDS011;6120;52.250;8.478;2023-05-07T07:27:41;29.20;;;17.77;;
12112;SDS011;6120;52.250;8.478;2023-05-07T07:30:08;29.95;;;18.52;;
12112;SDS011;6120;52.250;8.478;2023-05-07T07:32:35;27.42;;;16.45;;
12112;SDS011;6120;52.250;8.478;2023-05-07T07:35:01;32.22;;;17.83;;
12112;SDS011;6120;52.250;8.478;2023-05-07T07:37:28;28.98;;;17.30;;
12112;SDS011;6120;52.250;8.478;2023-05-07T07:39:55;32.65;;;18.42;;
12112;SDS011;6120;52.250;8.478;2023-05-07T07:42:22;30.77;;;18.58;;
12112;SDS011;6120;52.250;8.478;2023-05-07T07:44:50;34.05;;;19.02;;
12112;SDS011;6120;52.250;8.478;2023-05-07T07:47:17;31.17;;;18.02;;
12112;SDS011;6120;52.250;8.478;2023-05-07T07:49:43;33.58;;;18.55;;
12112;SDS011;6120;52.250;8.478;2023-05-07T07:52:10;29.77;;;16.50;;
12112;SDS011;6120;52.250;8.478;2023-05-07T07:54:38;26.38;;;16.55;;
12112;SDS011;6120;52.250;8.478;2023-05-07T07:57:05;27.52;;;17.13;;
12112;SDS011;6120;52.250;8.478;2023-05-07T07:59:31;28.25;;;17.15;;
12112;SDS011;6120;52.250;8.478;2023-05-07T08:01:58;24.30;;;15.32;;
12112;SDS011;6120;52.250;8.478;2023-05-07T08:04:25;26.55;;;16.08;;
12112;SDS011;6120;52.250;8.478;2023-05-07T08:06:52;29.55;;;16.45;;
12112;SDS011;6120;52.250;8.478;2023-05-07T08:09:20;25.55;;;16.50;;
12112;SDS011;6120;52.250;8.478;2023-05-07T08:11:47;25.92;;;16.73;;
12112;SDS011;6120;52.250;8.478;2023-05-07T08:14:13;27.88;;;16.15;;
12112;SDS011;6120;52.250;8.478;2023-05-07T08:16:42;28.60;;;14.77;;
12112;SDS011;6120;52.250;8.478;2023-05-07T08:19:08;23.63;;;14.88;;
12112;SDS011;6120;52.250;8.478;2023-05-07T08:21:38;24.88;;;15.00;;
12112;SDS011;6120;52.250;8.478;2023-05-07T08:24:06;22.80;;;14.38;;
12112;SDS011;6120;52.250;8.478;2023-05-07T08:26:33;24.35;;;15.13;;
12112;SDS011;6120;52.250;8.478;2023-05-07T08:29:00;24.05;;;13.68;;
12112;SDS011;6120;52.250;8.478;2023-05-07T08:31:26;19.05;;;12.32;;
12112;SDS011;6120;52.250;8.478;2023-05-07T08:33:53;23.45;;;13.10;;
12112;SDS011;6120;52.250;8.478;2023-05-07T08:36:20;20.33;;;13.50;;
12112;SDS011;6120;52.250;8.478;2023-05-07T08:38:46;23.25;;;13.75;;
12112;SDS011;6120;52.250;8.478;2023-05-07T08:41:13;22.95;;;13.15;;
12112;SDS011;6120;52.250;8.478;2023-05-07T08:43:40;19.98;;;11.73;;
12112;SDS011;6120;52.250;8.478;2023-05-07T08:46:08;20.48;;;13.05;;
12112;SDS011;6120;52.250;8.478;2023-05-07T08:48:37;21.30;;;13.10;;
12112;SDS011;6120;52.250;8.478;2023-05-07T08:51:05;19.70;;;12.10;;
12112;SDS011;6120;52.250;8.478;2023-05-07T08:53:32;17.38;;;11.65;;
12112;SDS011;6120;52.250;8.478;2023-05-07T08:55:59;21.35;;;13.00;;
12112;SDS011;6120;52.250;8.478;2023-05-07T08:58:26;21.05;;;12.35;;
12112;SDS011;6120;52.250;8.478;2023-05-07T09:00:52;18.35;;;11.38;;
12112;SDS011;6120;52.250;8.478;2023-05-07T09:03:20;18.65;;;11.82;;
12112;SDS011;6120;52.250;8.478;2023-05-07T09:05:47;17.05;;;11.57;;
12112;SDS011;6120;52.250;8.478;2023-05-07T09:08:14;17.50;;;11.63;;
12112;SDS011;6120;52.250;8.478;2023-05-07T09:10:41;14.90;;;10.60;;
12112;SDS011;6120;52.250;8.478;2023-05-07T09:13:08;17.38;;;11.05;;
12112;SDS011;6120;52.250;8.478;2023-05-07T09:18:03;18.88;;;11.48;;
12112;SDS011;6120;52.250;8.478;2023-05-07T09:20:30;16.88;;;11.35;;
12112;SDS011;6120;52.250;8.478;2023-05-07T09:22:58;15.25;;;10.60;;
12112;SDS011;6120;52.250;8.478;2023-05-07T09:25:30;16.50;;;10.85;;
12112;SDS011;6120;52.250;8.478;2023-05-07T09:27:58;19.00;;;11.25;;
12112;SDS011;6120;52.250;8.478;2023-05-07T09:30:29;14.55;;;10.52;;
12112;SDS011;6120;52.250;8.478;2023-05-07T09:32:59;14.70;;;10.90;;
12112;SDS011;6120;52.250;8.478;2023-05-07T09:37:58;13.38;;;9.30;;
12112;SDS011;6120;52.250;8.478;2023-05-07T09:40:29;12.77;;;9.60;;
12112;SDS011;6120;52.250;8.478;2023-05-07T09:43:07;11.90;;;8.88;;
12112;SDS011;6120;52.250;8.478;2023-05-07T09:45:35;13.23;;;8.65;;
12112;SDS011;6120;52.250;8.478;2023-05-07T09:48:04;13.65;;;8.82;;
12112;SDS011;6120;52.250;8.478;2023-05-07T09:50:37;13.65;;;8.75;;
12112;SDS011;6120;52.250;8.478;2023-05-07T09:53:11;11.85;;;8.50;;
12112;SDS011;6120;52.250;8.478;2023-05-07T09:55:39;13.63;;;8.23;;
12112;SDS011;6120;52.250;8.478;2023-05-07T09:58:07;11.85;;;8.15;;
12112;SDS011;6120;52.250;8.478;2023-05-07T10:00:36;15.45;;;9.07;;
12112;SDS011;6120;52.250;8.478;2023-05-07T10:03:05;13.05;;;8.57;;
12112;SDS011;6120;52.250;8.478;2023-05-07T10:08:01;12.00;;;8.48;;
12112;SDS011;6120;52.250;8.478;2023-05-07T10:10:33;12.60;;;9.02;;
12112;SDS011;6120;52.250;8.478;2023-05-07T10:13:01;14.70;;;10.32;;
12112;SDS011;6120;52.250;8.478;2023-05-07T10:15:28;12.48;;;8.57;;
12112;SDS011;6120;52.250;8.478;2023-05-07T10:17:55;12.63;;;8.73;;
12112;SDS011;6120;52.250;8.478;2023-05-07T10:20:22;11.98;;;8.25;;
12112;SDS011;6120;52.250;8.478;2023-05-07T10:22:49;11.48;;;8.80;;
12112;SDS011;6120;52.250;8.478;2023-05-07T10:25:25;12.63;;;8.02;;
12112;SDS011;6120;52.250;8.478;2023-05-07T10:30:29;12.00;;;8.30;;
12112;SDS011;6120;52.250;8.478;2023-05-07T10:33:15;11.88;;;7.80;;
12112;SDS011;6120;52.250;8.478;2023-05-07T10:35:44;13.00;;;8.65;;
12112;SDS011;6120;52.250;8.478;2023-05-07T10:38:11;12.38;;;8.25;;
12112;SDS011;6120;52.250;8.478;2023-05-07T10:40:38;14.10;;;9.00;;
12112;SDS011;6120;52.250;8.478;2023-05-07T10:43:06;12.35;;;8.75;;
12112;SDS011;6120;52.250;8.478;2023-05-07T10:45:36;13.25;;;9.23;;
12112;SDS011;6120;52.250;8.478;2023-05-07T10:48:09;12.73;;;8.65;;
12112;SDS011;6120;52.250;8.478;2023-05-07T10:50:41;13.25;;;8.15;;
12112;SDS011;6120;52.250;8.478;2023-05-07T10:55:48;12.70;;;8.15;;
12112;SDS011;6120;52.250;8.478;2023-05-07T10:58:24;15.07;;;8.40;;
12112;SDS011;6120;52.250;8.478;2023-05-07T11:00:58;11.55;;;8.30;;
12112;SDS011;6120;52.250;8.478;2023-05-07T11:03:28;14.98;;;9.20;;
12112;SDS011;6120;52.250;8.478;2023-05-07T11:06:15;12.38;;;7.90;;
12112;SDS011;6120;52.250;8.478;2023-05-07T11:17:07;13.32;;;8.52;;
12112;SDS011;6120;52.250;8.478;2023-05-07T11:24:59;10.75;;;7.50;;
12112;SDS011;6120;52.250;8.478;2023-05-07T11:27:26;11.68;;;7.60;;
12112;SDS011;6120;52.250;8.478;2023-05-07T11:29:53;11.95;;;8.02;;
12112;SDS011;6120;52.250;8.478;2023-05-07T11:32:26;11.40;;;7.88;;
12112;SDS011;6120;52.250;8.478;2023-05-07T11:34:57;10.35;;;7.72;;
12112;SDS011;6120;52.250;8.478;2023-05-07T11:37:25;12.27;;;7.90;;
12112;SDS011;6120;52.250;8.478;2023-05-07T11:40:03;11.57;;;7.45;;
12112;SDS011;6120;52.250;8.478;2023-05-07T11:42:34;11.40;;;8.02;;
12112;SDS011;6120;52.250;8.478;2023-05-07T11:45:06;10.75;;;7.72;;
12112;SDS011;6120;52.250;8.478;2023-05-07T11:47:34;9.35;;;6.65;;
12112;SDS011;6120;52.250;8.478;2023-05-07T11:50:05;9.95;;;6.63;;
12112;SDS011;6120;52.250;8.478;2023-05-07T11:52:34;9.93;;;6.55;;
12112;SDS011;6120;52.250;8.478;2023-05-07T11:57:32;10.85;;;7.30;;
12112;SDS011;6120;52.250;8.478;2023-05-07T12:00:01;11.43;;;7.28;;
12112;SDS011;6120;52.250;8.478;2023-05-07T12:02:31;10.10;;;7.40;;
12112;SDS011;6120;52.250;8.478;2023-05-07T12:07:27;7.72;;;6.43;;
12112;SDS011;6120;52.250;8.478;2023-05-07T12:09:54;9.05;;;6.22;;
12112;SDS011;6120;52.250;8.478;2023-05-07T12:12:23;12.05;;;6.88;;
12112;SDS011;6120;52.250;8.478;2023-05-07T12:14:51;10.90;;;7.40;;
12112;SDS011;6120;52.250;8.478;2023-05-07T12:17:19;9.27;;;5.95;;
12112;SDS011;6120;52.250;8.478;2023-05-07T12:19:47;8.80;;;6.60;;
12112;SDS011;6120;52.250;8.478;2023-05-07T12:27:13;8.32;;;6.10;;
12112;SDS011;6120;52.250;8.478;2023-05-07T12:29:46;9.35;;;6.18;;
12112;SDS011;6120;52.250;8.478;2023-05-07T12:32:18;8.70;;;5.78;;
12112;SDS011;6120;52.250;8.478;2023-05-07T12:34:51;8.80;;;6.45;;
12112;SDS011;6120;52.250;8.478;2023-05-07T12:37:25;9.20;;;6.10;;
12112;SDS011;6120;52.250;8.478;2023-05-07T12:40:04;9.02;;;6.10;;
12112;SDS011;6120;52.250;8.478;2023-05-07T12:42:36;9.15;;;6.03;;
12112;SDS011;6120;52.250;8.478;2023-05-07T12:45:11;8.48;;;6.32;;
12112;SDS011;6120;52.250;8.478;2023-05-07T12:47:43;13.40;;;7.47;;
12112;SDS011;6120;52.250;8.478;2023-05-07T12:50:12;11.20;;;6.85;;
12112;SDS011;6120;52.250;8.478;2023-05-07T12:55:07;9.95;;;7.38;;
12112;SDS011;6120;52.250;8.478;2023-05-07T12:57:38;8.57;;;6.32;;
12112;SDS011;6120;52.250;8.478;2023-05-07T13:00:06;9.23;;;6.78;;
12112;SDS011;6120;52.250;8.478;2023-05-07T13:02:33;8.45;;;5.93;;
12112;SDS011;6120;52.250;8.478;2023-05-07T13:05:01;14.50;;;7.70;;
12112;SDS011;6120;52.250;8.478;2023-05-07T13:07:27;9.75;;;6.97;;
12112;SDS011;6120;52.250;8.478;2023-05-07T13:09:56;9.68;;;6.78;;
12112;SDS011;6120;52.250;8.478;2023-05-07T13:12:22;8.80;;;6.53;;
12112;SDS011;6120;52.250;8.478;2023-05-07T13:14:49;10.63;;;7.10;;
12112;SDS011;6120;52.250;8.478;2023-05-07T13:17:16;10.82;;;7.28;;
12112;SDS011;6120;52.250;8.478;2023-05-07T13:19:42;10.43;;;6.60;;
12112;SDS011;6120;52.250;8.478;2023-05-07T13:22:09;10.90;;;7.80;;
12112;SDS011;6120;52.250;8.478;2023-05-07T13:24:36;8.98;;;6.68;;
12112;SDS011;6120;52.250;8.478;2023-05-07T13:27:02;11.38;;;7.18;;
12112;SDS011;6120;52.250;8.478;2023-05-07T13:29:30;10.27;;;7.87;;
12112;SDS011;6120;52.250;8.478;2023-05-07T13:31:58;11.35;;;7.70;;
12112;SDS011;6120;52.250;8.478;2023-05-07T13:34:26;11.23;;;7.32;;
12112;SDS011;6120;52.250;8.478;2023-05-07T13:36:52;10.95;;;7.80;;
12112;SDS011;6120;52.250;8.478;2023-05-07T13:39:19;14.20;;;7.40;;
12112;SDS011;6120;52.250;8.478;2023-05-07T13:41:46;9.63;;;6.80;;
12112;SDS011;6120;52.250;8.478;2023-05-07T13:44:12;13.43;;;6.72;;
12112;SDS011;6120;52.250;8.478;2023-05-07T13:46:39;10.43;;;7.93;;
12112;SDS011;6120;52.250;8.478;2023-05-07T13:49:06;9.65;;;6.90;;
12112;SDS011;6120;52.250;8.478;2023-05-07T13:51:32;9.63;;;7.07;;
12112;SDS011;6120;52.250;8.478;2023-05-07T13:53:59;9.25;;;6.63;;
12112;SDS011;6120;52.250;8.478;2023-05-07T13:56:25;8.57;;;5.45;;
12112;SDS011;6120;52.250;8.478;2023-05-07T14:01:25;11.60;;;6.60;;
12112;SDS011;6120;52.250;8.478;2023-05-07T14:03:52;8.80;;;6.40;;
12112;SDS011;6120;52.250;8.478;2023-05-07T14:06:19;10.35;;;6.97;;
12112;SDS011;6120;52.250;8.478;2023-05-07T14:08:45;8.55;;;6.70;;
12112;SDS011;6120;52.250;8.478;2023-05-07T14:11:12;9.75;;;6.55;;
12112;SDS011;6120;52.250;8.478;2023-05-07T14:13:39;11.88;;;6.85;;
12112;SDS011;6120;52.250;8.478;2023-05-07T14:16:05;8.55;;;6.55;;
12112;SDS011;6120;52.250;8.478;2023-05-07T14:18:32;9.00;;;6.05;;
12112;SDS011;6120;52.250;8.478;2023-05-07T14:21:00;8.65;;;5.97;;
12112;SDS011;6120;52.250;8.478;2023-05-07T14:23:27;8.45;;;6.47;;
12112;SDS011;6120;52.250;8.478;2023-05-07T14:25:54;11.32;;;6.40;;
12112;SDS011;6120;52.250;8.478;2023-05-07T14:28:20;8.85;;;6.30;;
12112;SDS011;6120;52.250;8.478;2023-05-07T14:30:47;8.77;;;6.53;;
12112;SDS011;6120;52.250;8.478;2023-05-07T14:33:14;10.55;;;6.80;;
12112;SDS011;6120;52.250;8.478;2023-05-07T14:35:40;10.73;;;7.30;;
12112;SDS011;6120;52.250;8.478;2023-05-07T14:38:07;9.63;;;6.85;;
12112;SDS011;6120;52.250;8.478;2023-05-07T14:40:34;10.18;;;6.80;;
12112;SDS011;6120;52.250;8.478;2023-05-07T14:43:00;9.27;;;6.07;;
12112;SDS011;6120;52.250;8.478;2023-05-07T14:45:27;9.88;;;7.00;;
12112;SDS011;6120;52.250;8.478;2023-05-07T14:47:54;8.98;;;6.78;;
12112;SDS011;6120;52.250;8.478;2023-05-07T14:50:21;9.60;;;6.67;;
12112;SDS011;6120;52.250;8.478;2023-05-07T14:52:48;11.05;;;7.03;;
12112;SDS011;6120;52.250;8.478;2023-05-07T14:55:14;8.82;;;6.55;;
12112;SDS011;6120;52.250;8.478;2023-05-07T14:57:41;10.05;;;7.30;;
12112;SDS011;6120;52.250;8.478;2023-05-07T15:00:08;9.57;;;6.97;;
12112;SDS011;6120;52.250;8.478;2023-05-07T15:02:35;9.77;;;6.63;;
12112;SDS011;6120;52.250;8.478;2023-05-07T15:05:02;11.35;;;7.85;;
12112;SDS011;6120;52.250;8.478;2023-05-07T15:07:29;8.88;;;6.85;;
12112;SDS011;6120;52.250;8.478;2023-05-07T15:09:58;8.35;;;6.57;;
12112;SDS011;6120;52.250;8.478;2023-05-07T15:12:25;9.98;;;7.13;;
12112;SDS011;6120;52.250;8.478;2023-05-07T15:14:52;9.63;;;7.30;;
12112;SDS011;6120;52.250;8.478;2023-05-07T15:17:18;10.32;;;6.47;;
12112;SDS011;6120;52.250;8.478;2023-05-07T15:19:45;10.18;;;7.43;;
12112;SDS011;6120;52.250;8.478;2023-05-07T15:22:12;10.07;;;7.18;;
12112;SDS011;6120;52.250;8.478;2023-05-07T15:24:38;10.48;;;7.50;;
12112;SDS011;6120;52.250;8.478;2023-05-07T15:27:06;11.88;;;7.15;;
12112;SDS011;6120;52.250;8.478;2023-05-07T15:29:33;8.18;;;6.60;;